sensor_id;sensor_type;location;lat;lon;timestamp;P1;durP1;ratioP1;P2;durP2;ratioP2
43700;SDS011;58809;47.984;7.964;2023-10-09T00:02:46;18.52;;;6.63;;
43700;SDS011;58809;47.984;7.964;2023-10-09T00:05:50;17.75;;;6.95;;
43700;SDS011;58809;47.984;7.964;2023-10-09T00:08:55;14.60;;;6.70;;
43700;SDS011;58809;47.984;7.964;2023-10-09T00:11:58;15.80;;;6.95;;
43700;SDS011;58809;47.984;7.964;2023-10-09T00:15:01;17.55;;;6.80;;
43700;SDS011;58809;47.984;7.964;2023-10-09T00:18:12;13.77;;;6.43;;
43700;SDS011;58809;47.984;7.964;2023-10-09T00:21:17;15.80;;;6.95;;
43700;SDS011;58809;47.984;7.964;2023-10-09T00:24:22;20.10;;;6.78;;
43700;SDS011;58809;47.984;7.964;2023-10-09T00:27:26;19.00;;;6.57;;
43700;SDS011;58809;47.984;7.964;2023-10-09T00:30:33;18.60;;;7.50;;
43700;SDS011;58809;47.984;7.964;2023-10-09T00:33:34;19.00;;;7.03;;
43700;SDS011;58809;47.984;7.964;2023-10-09T00:36:36;15.07;;;7.10;;
43700;SDS011;58809;47.984;7.964;2023-10-09T00:39:52;15.40;;;6.25;;
43700;SDS011;58809;47.984;7.964;2023-10-09T00:42:59;16.13;;;6.90;;
43700;SDS011;58809;47.984;7.964;2023-10-09T00:46:04;17.77;;;7.05;;
43700;SDS011;58809;47.984;7.964;2023-10-09T00:49:25;17.52;;;6.50;;
43700;SDS011;58809;47.984;7.964;2023-10-09T00:52:30;14.80;;;6.13;;
43700;SDS011;58809;47.984;7.964;2023-10-09T00:55:34;16.80;;;7.20;;
43700;SDS011;58809;47.984;7.964;2023-10-09T00:58:40;14.98;;;6.38;;
43700;SDS011;58809;47.984;7.964;2023-10-09T01:01:43;20.45;;;8.32;;
43700;SDS011;58809;47.984;7.964;2023-10-09T01:04:59;14.38;;;6.88;;
43700;SDS011;58809;47.984;7.964;2023-10-09T01:08:01;15.35;;;7.70;;
43700;SDS011;58809;47.984;7.964;2023-10-09T01:11:03;17.23;;;7.00;;
43700;SDS011;58809;47.984;7.964;2023-10-09T01:14:11;15.85;;;6.70;;
43700;SDS011;58809;47.984;7.964;2023-10-09T01:17:13;11.55;;;6.45;;
43700;SDS011;58809;47.984;7.964;2023-10-09T01:20:35;17.83;;;6.60;;
43700;SDS011;58809;47.984;7.964;2023-10-09T01:23:43;16.20;;;6.78;;
43700;SDS011;58809;47.984;7.964;2023-10-09T01:27:06;13.75;;;6.45;;
43700;SDS011;58809;47.984;7.964;2023-10-09T01:30:17;15.45;;;6.72;;
43700;SDS011;58809;47.984;7.964;2023-10-09T01:33:19;14.30;;;7.15;;
43700;SDS011;58809;47.984;7.964;2023-10-09T01:36:24;16.30;;;7.32;;
43700;SDS011;58809;47.984;7.964;2023-10-09T01:39:32;19.23;;;6.55;;
43700;SDS011;58809;47.984;7.964;2023-10-09T01:42:41;17.45;;;7.18;;
43700;SDS011;58809;47.984;7.964;2023-10-09T01:45:48;19.27;;;7.20;;
43700;SDS011;58809;47.984;7.964;2023-10-09T01:48:53;16.52;;;6.88;;
43700;SDS011;58809;47.984;7.964;2023-10-09T01:51:56;18.80;;;6.45;;
43700;SDS011;58809;47.984;7.964;2023-10-09T01:55:05;15.43;;;7.35;;
43700;SDS011;58809;47.984;7.964;2023-10-09T01:58:11;17.88;;;6.43;;
43700;SDS011;58809;47.984;7.964;2023-10-09T02:01:25;18.92;;;7.57;;
43700;SDS011;58809;47.984;7.964;2023-10-09T02:04:28;14.50;;;7.25;;
43700;SDS011;58809;47.984;7.964;2023-10-09T02:07:30;15.27;;;6.55;;
43700;SDS011;58809;47.984;7.964;2023-10-09T02:10:42;13.82;;;6.55;;
43700;SDS011;58809;47.984;7.964;2023-10-09T02:13:52;16.33;;;6.28;;
43700;SDS011;58809;47.984;7.964;2023-10-09T02:17:02;18.35;;;7.18;;
43700;SDS011;58809;47.984;7.964;2023-10-09T02:20:04;16.35;;;7.13;;
43700;SDS011;58809;47.984;7.964;2023-10-09T02:23:18;16.13;;;6.28;;
43700;SDS011;58809;47.984;7.964;2023-10-09T02:26:25;15.00;;;6.38;;
43700;SDS011;58809;47.984;7.964;2023-10-09T02:29:28;16.75;;;6.88;;
43700;SDS011;58809;47.984;7.964;2023-10-09T02:32:29;16.95;;;6.90;;
43700;SDS011;58809;47.984;7.964;2023-10-09T02:35:33;14.35;;;6.63;;
43700;SDS011;58809;47.984;7.964;2023-10-09T02:38:39;17.48;;;7.40;;
43700;SDS011;58809;47.984;7.964;2023-10-09T02:44:51;14.82;;;7.30;;
43700;SDS011;58809;47.984;7.964;2023-10-09T02:47:53;18.55;;;6.63;;
43700;SDS011;58809;47.984;7.964;2023-10-09T02:53:59;17.02;;;7.50;;
43700;SDS011;58809;47.984;7.964;2023-10-09T02:57:20;16.75;;;7.03;;
43700;SDS011;58809;47.984;7.964;2023-10-09T03:00:26;20.20;;;7.93;;
43700;SDS011;58809;47.984;7.964;2023-10-09T03:03:31;17.08;;;8.25;;
43700;SDS011;58809;47.984;7.964;2023-10-09T03:06:37;16.63;;;7.97;;
43700;SDS011;58809;47.984;7.964;2023-10-09T03:09:47;20.20;;;6.88;;
43700;SDS011;58809;47.984;7.964;2023-10-09T03:12:50;14.38;;;7.00;;
43700;SDS011;58809;47.984;7.964;2023-10-09T03:15:54;14.65;;;7.20;;
43700;SDS011;58809;47.984;7.964;2023-10-09T03:18:56;15.20;;;6.20;;
43700;SDS011;58809;47.984;7.964;2023-10-09T03:21:58;13.93;;;6.57;;
43700;SDS011;58809;47.984;7.964;2023-10-09T03:25:00;19.13;;;8.00;;
43700;SDS011;58809;47.984;7.964;2023-10-09T03:28:01;21.00;;;6.75;;
43700;SDS011;58809;47.984;7.964;2023-10-09T03:31:03;16.48;;;7.38;;
43700;SDS011;58809;47.984;7.964;2023-10-09T03:34:07;14.27;;;5.88;;
43700;SDS011;58809;47.984;7.964;2023-10-09T03:37:11;15.15;;;6.57;;
43700;SDS011;58809;47.984;7.964;2023-10-09T03:40:23;17.30;;;7.70;;
43700;SDS011;58809;47.984;7.964;2023-10-09T03:43:26;17.60;;;6.88;;
43700;SDS011;58809;47.984;7.964;2023-10-09T03:46:33;16.75;;;6.78;;
43700;SDS011;58809;47.984;7.964;2023-10-09T03:49:34;17.60;;;6.28;;
43700;SDS011;58809;47.984;7.964;2023-10-09T03:52:40;14.30;;;6.80;;
43700;SDS011;58809;47.984;7.964;2023-10-09T03:55:41;14.85;;;6.57;;
43700;SDS011;58809;47.984;7.964;2023-10-09T03:58:44;19.52;;;6.85;;
43700;SDS011;58809;47.984;7.964;2023-10-09T04:01:47;15.07;;;6.60;;
43700;SDS011;58809;47.984;7.964;2023-10-09T04:04:50;13.37;;;7.70;;
43700;SDS011;58809;47.984;7.964;2023-10-09T04:07:54;20.15;;;6.95;;
43700;SDS011;58809;47.984;7.964;2023-10-09T04:10:56;14.38;;;6.70;;
43700;SDS011;58809;47.984;7.964;2023-10-09T04:14:05;14.25;;;6.25;;
43700;SDS011;58809;47.984;7.964;2023-10-09T04:17:13;17.38;;;7.53;;
43700;SDS011;58809;47.984;7.964;2023-10-09T04:20:24;16.95;;;7.38;;
43700;SDS011;58809;47.984;7.964;2023-10-09T04:23:26;20.80;;;7.82;;
43700;SDS011;58809;47.984;7.964;2023-10-09T04:26:37;15.77;;;6.95;;
43700;SDS011;58809;47.984;7.964;2023-10-09T04:29:45;19.20;;;8.38;;
43700;SDS011;58809;47.984;7.964;2023-10-09T04:32:51;16.42;;;7.70;;
43700;SDS011;58809;47.984;7.964;2023-10-09T04:36:06;17.70;;;6.80;;
43700;SDS011;58809;47.984;7.964;2023-10-09T04:39:18;14.65;;;7.40;;
43700;SDS011;58809;47.984;7.964;2023-10-09T04:42:31;16.87;;;6.67;;
43700;SDS011;58809;47.984;7.964;2023-10-09T04:45:39;17.50;;;7.72;;
43700;SDS011;58809;47.984;7.964;2023-10-09T04:48:59;18.02;;;7.90;;
43700;SDS011;58809;47.984;7.964;2023-10-09T04:52:17;17.33;;;8.45;;
43700;SDS011;58809;47.984;7.964;2023-10-09T04:55:21;20.55;;;7.63;;
43700;SDS011;58809;47.984;7.964;2023-10-09T05:04:59;21.48;;;8.13;;
43700;SDS011;58809;47.984;7.964;2023-10-09T05:08:38;18.42;;;7.72;;
43700;SDS011;58809;47.984;7.964;2023-10-09T05:11:47;19.67;;;8.07;;
43700;SDS011;58809;47.984;7.964;2023-10-09T05:14:55;17.52;;;9.48;;
43700;SDS011;58809;47.984;7.964;2023-10-09T05:18:10;16.63;;;8.45;;
43700;SDS011;58809;47.984;7.964;2023-10-09T05:21:17;20.83;;;8.32;;
43700;SDS011;58809;47.984;7.964;2023-10-09T05:24:34;19.10;;;8.20;;
43700;SDS011;58809;47.984;7.964;2023-10-09T05:27:45;22.55;;;8.27;;
43700;SDS011;58809;47.984;7.964;2023-10-09T05:30:52;17.52;;;8.88;;
43700;SDS011;58809;47.984;7.964;2023-10-09T05:34:17;17.88;;;8.95;;
43700;SDS011;58809;47.984;7.964;2023-10-09T05:37:21;20.70;;;10.43;;
43700;SDS011;58809;47.984;7.964;2023-10-09T05:40:34;23.27;;;11.70;;
43700;SDS011;58809;47.984;7.964;2023-10-09T05:43:37;23.95;;;11.98;;
43700;SDS011;58809;47.984;7.964;2023-10-09T05:46:56;20.48;;;11.45;;
43700;SDS011;58809;47.984;7.964;2023-10-09T05:50:17;23.60;;;14.38;;
43700;SDS011;58809;47.984;7.964;2023-10-09T05:53:18;16.85;;;10.88;;
43700;SDS011;58809;47.984;7.964;2023-10-09T05:56:40;22.08;;;9.70;;
43700;SDS011;58809;47.984;7.964;2023-10-09T06:00:00;21.42;;;8.30;;
43700;SDS011;58809;47.984;7.964;2023-10-09T06:03:20;18.38;;;8.30;;
43700;SDS011;58809;47.984;7.964;2023-10-09T06:06:22;18.98;;;7.60;;
43700;SDS011;58809;47.984;7.964;2023-10-09T06:09:44;16.73;;;8.07;;
43700;SDS011;58809;47.984;7.964;2023-10-09T06:12:57;18.38;;;8.75;;
43700;SDS011;58809;47.984;7.964;2023-10-09T06:16:05;18.13;;;8.93;;
43700;SDS011;58809;47.984;7.964;2023-10-09T06:19:33;16.70;;;7.57;;
43700;SDS011;58809;47.984;7.964;2023-10-09T06:22:44;17.73;;;7.97;;
43700;SDS011;58809;47.984;7.964;2023-10-09T06:26:00;19.23;;;7.05;;
43700;SDS011;58809;47.984;7.964;2023-10-09T06:29:07;18.83;;;7.57;;
43700;SDS011;58809;47.984;7.964;2023-10-09T06:32:18;19.35;;;6.72;;
43700;SDS011;58809;47.984;7.964;2023-10-09T06:35:20;13.57;;;7.40;;
43700;SDS011;58809;47.984;7.964;2023-10-09T06:38:31;21.13;;;8.93;;
43700;SDS011;58809;47.984;7.964;2023-10-09T06:41:53;16.10;;;7.50;;
43700;SDS011;58809;47.984;7.964;2023-10-09T06:45:11;20.35;;;7.47;;
43700;SDS011;58809;47.984;7.964;2023-10-09T06:48:17;13.73;;;6.32;;
43700;SDS011;58809;47.984;7.964;2023-10-09T06:51:38;17.30;;;7.22;;
43700;SDS011;58809;47.984;7.964;2023-10-09T06:54:42;21.00;;;7.70;;
43700;SDS011;58809;47.984;7.964;2023-10-09T06:57:51;16.08;;;5.95;;
43700;SDS011;58809;47.984;7.964;2023-10-09T07:00:55;19.55;;;6.95;;
43700;SDS011;58809;47.984;7.964;2023-10-09T07:04:00;20.77;;;8.07;;
43700;SDS011;58809;47.984;7.964;2023-10-09T07:07:20;17.27;;;7.85;;
43700;SDS011;58809;47.984;7.964;2023-10-09T07:10:26;15.57;;;6.80;;
43700;SDS011;58809;47.984;7.964;2023-10-09T07:13:30;20.20;;;7.57;;
43700;SDS011;58809;47.984;7.964;2023-10-09T07:16:38;19.60;;;7.20;;
43700;SDS011;58809;47.984;7.964;2023-10-09T07:19:40;16.38;;;7.10;;
43700;SDS011;58809;47.984;7.964;2023-10-09T07:22:41;15.50;;;7.30;;
43700;SDS011;58809;47.984;7.964;2023-10-09T07:26:00;18.15;;;7.10;;
43700;SDS011;58809;47.984;7.964;2023-10-09T07:29:20;16.33;;;7.10;;
43700;SDS011;58809;47.984;7.964;2023-10-09T07:32:24;20.25;;;7.40;;
43700;SDS011;58809;47.984;7.964;2023-10-09T07:35:30;15.10;;;7.43;;
43700;SDS011;58809;47.984;7.964;2023-10-09T07:38:44;16.05;;;7.32;;
43700;SDS011;58809;47.984;7.964;2023-10-09T07:41:47;12.32;;;6.75;;
43700;SDS011;58809;47.984;7.964;2023-10-09T07:45:03;19.75;;;7.13;;
43700;SDS011;58809;47.984;7.964;2023-10-09T07:48:34;20.15;;;7.53;;
43700;SDS011;58809;47.984;7.964;2023-10-09T07:51:53;16.98;;;6.75;;
43700;SDS011;58809;47.984;7.964;2023-10-09T07:54:55;15.40;;;6.90;;
43700;SDS011;58809;47.984;7.964;2023-10-09T07:58:04;18.63;;;7.30;;
43700;SDS011;58809;47.984;7.964;2023-10-09T08:01:14;14.48;;;7.05;;
43700;SDS011;58809;47.984;7.964;2023-10-09T08:04:40;15.23;;;6.45;;
43700;SDS011;58809;47.984;7.964;2023-10-09T08:07:50;18.17;;;8.05;;
43700;SDS011;58809;47.984;7.964;2023-10-09T08:11:31;23.15;;;8.55;;
43700;SDS011;58809;47.984;7.964;2023-10-09T08:14:42;28.45;;;8.38;;
43700;SDS011;58809;47.984;7.964;2023-10-09T08:17:53;24.77;;;8.57;;
43700;SDS011;58809;47.984;7.964;2023-10-09T08:21:01;16.10;;;8.02;;
43700;SDS011;58809;47.984;7.964;2023-10-09T08:24:03;18.13;;;8.32;;
43700;SDS011;58809;47.984;7.964;2023-10-09T08:27:09;14.52;;;7.38;;
43700;SDS011;58809;47.984;7.964;2023-10-09T08:30:48;19.15;;;7.22;;
43700;SDS011;58809;47.984;7.964;2023-10-09T08:34:13;22.50;;;7.70;;
43700;SDS011;58809;47.984;7.964;2023-10-09T08:37:30;21.35;;;7.90;;
43700;SDS011;58809;47.984;7.964;2023-10-09T08:40:32;17.98;;;7.55;;
43700;SDS011;58809;47.984;7.964;2023-10-09T08:43:34;15.43;;;6.80;;
43700;SDS011;58809;47.984;7.964;2023-10-09T08:46:40;18.33;;;7.20;;
43700;SDS011;58809;47.984;7.964;2023-10-09T08:49:43;17.42;;;7.72;;
43700;SDS011;58809;47.984;7.964;2023-10-09T08:52:45;13.82;;;6.70;;
43700;SDS011;58809;47.984;7.964;2023-10-09T08:55:47;15.15;;;6.68;;
43700;SDS011;58809;47.984;7.964;2023-10-09T08:58:52;15.85;;;6.05;;
43700;SDS011;58809;47.984;7.964;2023-10-09T09:01:57;14.13;;;6.47;;
43700;SDS011;58809;47.984;7.964;2023-10-09T09:05:01;17.52;;;6.28;;
43700;SDS011;58809;47.984;7.964;2023-10-09T09:08:21;20.55;;;7.45;;
43700;SDS011;58809;47.984;7.964;2023-10-09T09:11:25;15.40;;;6.97;;
43700;SDS011;58809;47.984;7.964;2023-10-09T09:14:38;18.77;;;7.22;;
43700;SDS011;58809;47.984;7.964;2023-10-09T09:17:40;16.02;;;7.20;;
43700;SDS011;58809;47.984;7.964;2023-10-09T09:20:43;14.93;;;6.90;;
43700;SDS011;58809;47.984;7.964;2023-10-09T09:23:55;19.00;;;7.55;;
43700;SDS011;58809;47.984;7.964;2023-10-09T09:27:43;16.05;;;7.15;;
43700;SDS011;58809;47.984;7.964;2023-10-09T09:30:54;21.52;;;7.40;;
43700;SDS011;58809;47.984;7.964;2023-10-09T09:34:08;20.80;;;7.65;;
43700;SDS011;58809;47.984;7.964;2023-10-09T09:37:19;16.38;;;7.63;;
43700;SDS011;58809;47.984;7.964;2023-10-09T09:40:35;19.65;;;6.30;;
43700;SDS011;58809;47.984;7.964;2023-10-09T09:43:42;12.93;;;6.95;;
43700;SDS011;58809;47.984;7.964;2023-10-09T09:46:47;11.43;;;5.88;;
43700;SDS011;58809;47.984;7.964;2023-10-09T09:49:50;13.18;;;6.60;;
43700;SDS011;58809;47.984;7.964;2023-10-09T09:53:01;14.13;;;5.40;;
43700;SDS011;58809;47.984;7.964;2023-10-09T09:56:03;13.65;;;5.60;;
43700;SDS011;58809;47.984;7.964;2023-10-09T09:59:06;16.67;;;6.13;;
43700;SDS011;58809;47.984;7.964;2023-10-09T10:02:10;17.80;;;5.95;;
43700;SDS011;58809;47.984;7.964;2023-10-09T10:05:22;14.80;;;6.03;;
43700;SDS011;58809;47.984;7.964;2023-10-09T10:08:24;13.38;;;5.78;;
43700;SDS011;58809;47.984;7.964;2023-10-09T10:11:41;19.05;;;6.03;;
43700;SDS011;58809;47.984;7.964;2023-10-09T10:14:52;20.58;;;6.95;;
43700;SDS011;58809;47.984;7.964;2023-10-09T10:28:15;16.85;;;6.35;;
43700;SDS011;58809;47.984;7.964;2023-10-09T10:31:17;14.18;;;6.15;;
43700;SDS011;58809;47.984;7.964;2023-10-09T10:34:18;14.80;;;5.15;;
43700;SDS011;58809;47.984;7.964;2023-10-09T10:37:38;17.73;;;5.93;;
43700;SDS011;58809;47.984;7.964;2023-10-09T10:40:52;13.07;;;5.95;;
43700;SDS011;58809;47.984;7.964;2023-10-09T10:44:01;14.68;;;6.45;;
43700;SDS011;58809;47.984;7.964;2023-10-09T10:47:26;12.93;;;5.60;;
43700;SDS011;58809;47.984;7.964;2023-10-09T10:50:35;15.48;;;5.45;;
43700;SDS011;58809;47.984;7.964;2023-10-09T10:53:39;14.18;;;5.55;;
43700;SDS011;58809;47.984;7.964;2023-10-09T10:56:59;12.00;;;5.72;;
43700;SDS011;58809;47.984;7.964;2023-10-09T11:00:01;19.30;;;5.97;;
43700;SDS011;58809;47.984;7.964;2023-10-09T11:03:30;16.00;;;5.78;;
43700;SDS011;58809;47.984;7.964;2023-10-09T11:06:37;16.55;;;5.22;;
43700;SDS011;58809;47.984;7.964;2023-10-09T11:13:05;18.80;;;6.53;;
43700;SDS011;58809;47.984;7.964;2023-10-09T11:16:10;14.13;;;5.32;;
43700;SDS011;58809;47.984;7.964;2023-10-09T11:19:30;17.65;;;6.30;;
43700;SDS011;58809;47.984;7.964;2023-10-09T11:22:41;11.38;;;5.68;;
43700;SDS011;58809;47.984;7.964;2023-10-09T11:25:52;13.73;;;6.18;;
43700;SDS011;58809;47.984;7.964;2023-10-09T11:29:16;14.18;;;6.20;;
43700;SDS011;58809;47.984;7.964;2023-10-09T11:32:18;18.33;;;5.93;;
43700;SDS011;58809;47.984;7.964;2023-10-09T11:35:23;17.25;;;6.15;;
43700;SDS011;58809;47.984;7.964;2023-10-09T11:38:36;20.00;;;6.65;;
43700;SDS011;58809;47.984;7.964;2023-10-09T11:41:39;19.10;;;6.60;;
43700;SDS011;58809;47.984;7.964;2023-10-09T11:44:42;13.02;;;5.72;;
43700;SDS011;58809;47.984;7.964;2023-10-09T11:47:46;14.88;;;6.93;;
43700;SDS011;58809;47.984;7.964;2023-10-09T11:51:11;14.27;;;6.53;;
43700;SDS011;58809;47.984;7.964;2023-10-09T11:54:29;13.52;;;5.95;;
43700;SDS011;58809;47.984;7.964;2023-10-09T11:57:34;16.23;;;6.65;;
43700;SDS011;58809;47.984;7.964;2023-10-09T12:00:36;14.15;;;5.97;;
43700;SDS011;58809;47.984;7.964;2023-10-09T12:03:47;21.02;;;6.60;;
43700;SDS011;58809;47.984;7.964;2023-10-09T12:06:52;12.00;;;5.78;;
43700;SDS011;58809;47.984;7.964;2023-10-09T12:10:07;12.88;;;5.78;;
43700;SDS011;58809;47.984;7.964;2023-10-09T12:13:11;16.80;;;6.43;;
43700;SDS011;58809;47.984;7.964;2023-10-09T12:16:13;15.27;;;5.97;;
43700;SDS011;58809;47.984;7.964;2023-10-09T12:22:19;16.25;;;5.47;;
43700;SDS011;58809;47.984;7.964;2023-10-09T12:28:24;14.70;;;6.00;;
43700;SDS011;58809;47.984;7.964;2023-10-09T12:31:26;15.55;;;5.40;;
43700;SDS011;58809;47.984;7.964;2023-10-09T12:34:28;13.40;;;5.13;;
43700;SDS011;58809;47.984;7.964;2023-10-09T12:37:30;15.00;;;5.55;;
43700;SDS011;58809;47.984;7.964;2023-10-09T12:40:32;13.90;;;5.57;;
43700;SDS011;58809;47.984;7.964;2023-10-09T12:43:34;15.38;;;6.03;;
43700;SDS011;58809;47.984;7.964;2023-10-09T12:46:39;14.02;;;5.90;;
43700;SDS011;58809;47.984;7.964;2023-10-09T12:49:41;16.98;;;5.90;;
43700;SDS011;58809;47.984;7.964;2023-10-09T12:52:42;19.67;;;7.85;;
43700;SDS011;58809;47.984;7.964;2023-10-09T12:55:44;14.30;;;5.95;;
43700;SDS011;58809;47.984;7.964;2023-10-09T12:58:46;13.05;;;5.70;;
43700;SDS011;58809;47.984;7.964;2023-10-09T13:01:57;16.17;;;6.50;;
43700;SDS011;58809;47.984;7.964;2023-10-09T13:04:59;13.68;;;5.85;;
43700;SDS011;58809;47.984;7.964;2023-10-09T13:08:02;13.30;;;5.53;;
43700;SDS011;58809;47.984;7.964;2023-10-09T13:11:04;15.05;;;5.82;;
43700;SDS011;58809;47.984;7.964;2023-10-09T13:14:13;14.48;;;6.28;;
43700;SDS011;58809;47.984;7.964;2023-10-09T13:17:24;16.00;;;6.05;;
43700;SDS011;58809;47.984;7.964;2023-10-09T13:20:28;15.32;;;5.82;;
43700;SDS011;58809;47.984;7.964;2023-10-09T13:23:30;13.70;;;5.55;;
43700;SDS011;58809;47.984;7.964;2023-10-09T13:26:49;16.67;;;5.82;;
43700;SDS011;58809;47.984;7.964;2023-10-09T13:29:53;13.57;;;6.20;;
43700;SDS011;58809;47.984;7.964;2023-10-09T13:32:55;12.45;;;6.13;;
43700;SDS011;58809;47.984;7.964;2023-10-09T13:35:56;10.68;;;5.85;;
43700;SDS011;58809;47.984;7.964;2023-10-09T13:38:59;17.50;;;6.13;;
43700;SDS011;58809;47.984;7.964;2023-10-09T13:42:20;12.30;;;5.90;;
43700;SDS011;58809;47.984;7.964;2023-10-09T13:45:26;13.10;;;7.05;;
43700;SDS011;58809;47.984;7.964;2023-10-09T13:48:33;12.60;;;6.13;;
43700;SDS011;58809;47.984;7.964;2023-10-09T13:51:42;12.88;;;6.10;;
43700;SDS011;58809;47.984;7.964;2023-10-09T13:54:47;13.95;;;6.05;;
43700;SDS011;58809;47.984;7.964;2023-10-09T13:57:50;10.93;;;6.38;;
43700;SDS011;58809;47.984;7.964;2023-10-09T14:00:52;14.60;;;6.40;;
43700;SDS011;58809;47.984;7.964;2023-10-09T14:07:01;14.50;;;6.25;;
43700;SDS011;58809;47.984;7.964;2023-10-09T14:10:07;13.20;;;5.88;;
43700;SDS011;58809;47.984;7.964;2023-10-09T14:13:09;21.98;;;7.13;;
43700;SDS011;58809;47.984;7.964;2023-10-09T14:16:13;13.50;;;6.03;;
43700;SDS011;58809;47.984;7.964;2023-10-09T14:19:29;15.50;;;5.88;;
43700;SDS011;58809;47.984;7.964;2023-10-09T14:22:34;14.80;;;6.40;;
43700;SDS011;58809;47.984;7.964;2023-10-09T14:25:39;14.90;;;5.90;;
43700;SDS011;58809;47.984;7.964;2023-10-09T14:28:41;14.82;;;5.90;;
43700;SDS011;58809;47.984;7.964;2023-10-09T14:31:44;19.77;;;6.53;;
43700;SDS011;58809;47.984;7.964;2023-10-09T14:34:50;16.83;;;6.55;;
43700;SDS011;58809;47.984;7.964;2023-10-09T14:37:52;17.20;;;5.60;;
43700;SDS011;58809;47.984;7.964;2023-10-09T14:40:55;16.03;;;6.23;;
43700;SDS011;58809;47.984;7.964;2023-10-09T14:44:00;13.25;;;5.70;;
43700;SDS011;58809;47.984;7.964;2023-10-09T14:47:02;11.73;;;6.15;;
43700;SDS011;58809;47.984;7.964;2023-10-09T14:50:07;13.40;;;5.80;;
43700;SDS011;58809;47.984;7.964;2023-10-09T14:53:14;15.43;;;6.43;;
43700;SDS011;58809;47.984;7.964;2023-10-09T14:56:16;14.45;;;6.63;;
43700;SDS011;58809;47.984;7.964;2023-10-09T14:59:22;15.68;;;6.15;;
43700;SDS011;58809;47.984;7.964;2023-10-09T15:02:23;14.35;;;5.82;;
43700;SDS011;58809;47.984;7.964;2023-10-09T15:05:25;14.63;;;5.35;;
43700;SDS011;58809;47.984;7.964;2023-10-09T15:08:26;16.27;;;6.30;;
43700;SDS011;58809;47.984;7.964;2023-10-09T15:11:28;11.52;;;5.40;;
43700;SDS011;58809;47.984;7.964;2023-10-09T15:14:30;15.57;;;5.97;;
43700;SDS011;58809;47.984;7.964;2023-10-09T15:17:33;14.52;;;6.28;;
43700;SDS011;58809;47.984;7.964;2023-10-09T15:20:44;13.38;;;6.38;;
43700;SDS011;58809;47.984;7.964;2023-10-09T15:23:47;12.70;;;6.22;;
43700;SDS011;58809;47.984;7.964;2023-10-09T15:26:50;17.38;;;5.65;;
43700;SDS011;58809;47.984;7.964;2023-10-09T15:29:58;16.52;;;7.15;;
43700;SDS011;58809;47.984;7.964;2023-10-09T15:33:00;13.63;;;6.25;;
43700;SDS011;58809;47.984;7.964;2023-10-09T15:36:08;15.52;;;5.88;;
43700;SDS011;58809;47.984;7.964;2023-10-09T15:39:13;17.10;;;6.35;;
43700;SDS011;58809;47.984;7.964;2023-10-09T15:42:15;12.30;;;6.18;;
43700;SDS011;58809;47.984;7.964;2023-10-09T15:45:17;12.93;;;6.10;;
43700;SDS011;58809;47.984;7.964;2023-10-09T15:48:23;17.10;;;6.57;;
43700;SDS011;58809;47.984;7.964;2023-10-09T15:51:24;16.08;;;7.00;;
43700;SDS011;58809;47.984;7.964;2023-10-09T15:54:27;15.70;;;7.13;;
43700;SDS011;58809;47.984;7.964;2023-10-09T15:57:29;14.57;;;6.87;;
43700;SDS011;58809;47.984;7.964;2023-10-09T16:00:32;17.00;;;6.78;;
43700;SDS011;58809;47.984;7.964;2023-10-09T16:03:33;16.50;;;7.25;;
43700;SDS011;58809;47.984;7.964;2023-10-09T16:06:35;18.92;;;6.85;;
43700;SDS011;58809;47.984;7.964;2023-10-09T16:09:41;19.77;;;7.03;;
43700;SDS011;58809;47.984;7.964;2023-10-09T16:12:42;18.15;;;6.88;;
43700;SDS011;58809;47.984;7.964;2023-10-09T16:15:44;15.32;;;7.07;;
43700;SDS011;58809;47.984;7.964;2023-10-09T16:18:46;15.32;;;7.05;;
43700;SDS011;58809;47.984;7.964;2023-10-09T16:21:49;18.45;;;6.97;;
43700;SDS011;58809;47.984;7.964;2023-10-09T16:24:50;15.23;;;6.72;;
43700;SDS011;58809;47.984;7.964;2023-10-09T16:27:53;20.17;;;6.75;;
43700;SDS011;58809;47.984;7.964;2023-10-09T16:34:00;18.40;;;7.38;;
43700;SDS011;58809;47.984;7.964;2023-10-09T16:37:01;16.50;;;6.72;;
43700;SDS011;58809;47.984;7.964;2023-10-09T16:40:03;13.57;;;6.78;;
43700;SDS011;58809;47.984;7.964;2023-10-09T16:43:12;18.30;;;7.82;;
43700;SDS011;58809;47.984;7.964;2023-10-09T16:46:19;19.98;;;7.75;;
43700;SDS011;58809;47.984;7.964;2023-10-09T16:49:24;15.75;;;7.20;;
43700;SDS011;58809;47.984;7.964;2023-10-09T16:52:26;17.00;;;8.13;;
43700;SDS011;58809;47.984;7.964;2023-10-09T16:55:28;14.95;;;7.63;;
43700;SDS011;58809;47.984;7.964;2023-10-09T16:58:31;18.20;;;7.03;;
43700;SDS011;58809;47.984;7.964;2023-10-09T17:01:34;23.90;;;7.25;;
43700;SDS011;58809;47.984;7.964;2023-10-09T17:04:38;19.25;;;7.32;;
43700;SDS011;58809;47.984;7.964;2023-10-09T17:07:41;16.42;;;7.43;;
43700;SDS011;58809;47.984;7.964;2023-10-09T17:10:46;14.32;;;6.80;;
43700;SDS011;58809;47.984;7.964;2023-10-09T17:13:52;13.45;;;7.78;;
43700;SDS011;58809;47.984;7.964;2023-10-09T17:16:58;15.93;;;7.43;;
43700;SDS011;58809;47.984;7.964;2023-10-09T17:20:00;16.55;;;7.70;;
43700;SDS011;58809;47.984;7.964;2023-10-09T17:23:13;20.08;;;7.80;;
43700;SDS011;58809;47.984;7.964;2023-10-09T17:26:14;18.50;;;7.60;;
43700;SDS011;58809;47.984;7.964;2023-10-09T17:29:19;14.68;;;7.60;;
43700;SDS011;58809;47.984;7.964;2023-10-09T17:32:21;19.88;;;8.05;;
43700;SDS011;58809;47.984;7.964;2023-10-09T17:35:24;16.65;;;8.05;;
43700;SDS011;58809;47.984;7.964;2023-10-09T17:38:25;19.25;;;6.82;;
43700;SDS011;58809;47.984;7.964;2023-10-09T17:41:27;17.08;;;7.80;;
43700;SDS011;58809;47.984;7.964;2023-10-09T17:44:32;20.25;;;9.00;;
43700;SDS011;58809;47.984;7.964;2023-10-09T17:47:33;18.42;;;7.97;;
43700;SDS011;58809;47.984;7.964;2023-10-09T17:50:36;21.38;;;7.82;;
43700;SDS011;58809;47.984;7.964;2023-10-09T17:53:38;14.77;;;6.65;;
43700;SDS011;58809;47.984;7.964;2023-10-09T17:56:40;15.30;;;7.85;;
43700;SDS011;58809;47.984;7.964;2023-10-09T17:59:41;18.38;;;8.50;;
43700;SDS011;58809;47.984;7.964;2023-10-09T18:02:43;15.50;;;8.57;;
43700;SDS011;58809;47.984;7.964;2023-10-09T18:05:45;18.65;;;8.60;;
43700;SDS011;58809;47.984;7.964;2023-10-09T18:08:47;21.00;;;7.75;;
43700;SDS011;58809;47.984;7.964;2023-10-09T18:11:49;18.73;;;6.78;;
43700;SDS011;58809;47.984;7.964;2023-10-09T18:14:56;15.68;;;6.78;;
43700;SDS011;58809;47.984;7.964;2023-10-09T18:18:00;13.27;;;7.53;;
43700;SDS011;58809;47.984;7.964;2023-10-09T18:21:03;19.55;;;8.75;;
43700;SDS011;58809;47.984;7.964;2023-10-09T18:24:10;16.10;;;6.70;;
43700;SDS011;58809;47.984;7.964;2023-10-09T18:27:18;15.35;;;7.97;;
43700;SDS011;58809;47.984;7.964;2023-10-09T18:30:20;15.85;;;8.38;;
43700;SDS011;58809;47.984;7.964;2023-10-09T18:33:27;15.10;;;8.07;;
43700;SDS011;58809;47.984;7.964;2023-10-09T18:36:29;16.58;;;8.30;;
43700;SDS011;58809;47.984;7.964;2023-10-09T18:39:33;20.95;;;8.40;;
43700;SDS011;58809;47.984;7.964;2023-10-09T18:42:40;17.13;;;8.30;;
43700;SDS011;58809;47.984;7.964;2023-10-09T18:45:42;14.02;;;8.43;;
43700;SDS011;58809;47.984;7.964;2023-10-09T18:48:44;17.23;;;7.97;;
43700;SDS011;58809;47.984;7.964;2023-10-09T18:51:47;15.50;;;7.90;;
43700;SDS011;58809;47.984;7.964;2023-10-09T18:54:49;22.77;;;7.65;;
43700;SDS011;58809;47.984;7.964;2023-10-09T18:57:51;20.13;;;8.27;;
43700;SDS011;58809;47.984;7.964;2023-10-09T19:00:53;13.10;;;6.97;;
43700;SDS011;58809;47.984;7.964;2023-10-09T19:04:02;17.30;;;7.82;;
43700;SDS011;58809;47.984;7.964;2023-10-09T19:07:09;18.90;;;8.75;;
43700;SDS011;58809;47.984;7.964;2023-10-09T19:10:10;18.17;;;8.15;;